Time;durP1;ratioP1;P1;durP2;ratioP2;P2;SDS_P1;SDS_P2;PMS_P1;PMS_P2;Temp;Humidity;BMP_temperature;BMP_pressure;BME280_temperature;BME280_humidity;BME280_pressure;Samples;Min_cycle;Max_cycle;Signal;HPM_P1;HPM_P2
2021/08/17 00:00:57;;;;;;;;;;;10.40;99.90;;;;;;5120208;27;20384;-63
2021/08/17 00:03:23;;;;;;;18.63;3.45;;;10.40;99.90;;;;;;5123042;27;19937;-64
2021/08/17 00:05:49;;;;;;;10.77;4.05;;;10.40;99.90;;;;;;5122988;27;20043;-63
2021/08/17 00:08:15;;;;;;;14.25;4.88;;;10.40;99.90;;;;;;5122631;27;20084;-63
2021/08/17 00:10:40;;;;;;;;;;;10.40;99.90;;;;;;5123926;28;20233;-64
2021/08/17 00:13:06;;;;;;;13.30;4.60;;;10.40;99.90;;;;;;5123103;27;19920;-61
2021/08/17 00:15:34;;;;;;;21.67;5.80;;;10.40;99.90;;;;;;5121916;27;20038;-61
2021/08/17 00:18:01;;;;;;;9.18;4.50;;;10.50;99.90;;;;;;5114355;27;20678;-61
2021/08/17 00:20:26;;;;;;;15.23;4.55;;;10.50;99.90;;;;;;5107570;28;20688;-62
2021/08/17 00:22:52;;;;;;;;;;;10.50;99.90;;;;;;5109136;28;20031;-62
2021/08/17 00:25:18;;;;;;;17.77;6.68;;;10.40;99.90;;;;;;5109069;28;19919;-63
2021/08/17 00:27:43;;;;;;;;;;;10.40;99.90;;;;;;5107939;28;20465;-62
2021/08/17 00:30:10;;;;;;;29.25;6.88;;;10.50;99.90;;;;;;5118117;27;19923;-62
2021/08/17 00:32:35;;;;;;;16.02;6.28;;;10.50;99.90;;;;;;5128209;27;20043;-62
2021/08/17 00:35:01;;;;;;;;;;;10.40;99.90;;;;;;5129708;27;20129;-61
2021/08/17 00:37:28;;;;;;;16.30;5.03;;;10.50;99.90;;;;;;5124745;27;19915;-62
2021/08/17 00:39:54;;;;;;;14.38;6.03;;;10.50;99.90;;;;;;5120926;27;20168;-62
2021/08/17 00:42:19;;;;;;;;;;;10.50;99.90;;;;;;5130350;27;20138;-62
2021/08/17 00:44:45;;;;;;;12.30;5.68;;;10.40;99.90;;;;;;5127816;27;20052;-62
2021/08/17 00:47:12;;;;;;;;;;;10.40;99.90;;;;;;5128930;27;20043;-60
2021/08/17 00:49:38;;;;;;;17.83;5.45;;;10.50;99.90;;;;;;5129302;27;20673;-62
2021/08/17 00:52:06;;;;;;;;;;;10.50;99.90;;;;;;5129510;27;20078;-62
2021/08/17 00:54:34;;;;;;;15.93;5.22;;;10.50;99.90;;;;;;5126969;27;19915;-62
2021/08/17 00:57:01;;;;;;;12.65;5.68;;;10.50;99.90;;;;;;5105474;28;20673;-62
2021/08/17 00:59:27;;;;;;;18.23;5.65;;;10.50;99.90;;;;;;5108714;28;20054;-62
2021/08/17 01:01:53;;;;;;;15.23;5.75;;;10.50;99.90;;;;;;5107214;27;20043;-62
2021/08/17 01:04:19;;;;;;;;;;;10.60;99.90;;;;;;5109412;28;20035;-62
2021/08/17 01:06:44;;;;;;;15.57;5.05;;;10.60;99.90;;;;;;5108139;28;20064;-62
2021/08/17 01:09:10;;;;;;;;;;;10.60;99.90;;;;;;5117841;27;20028;-62
2021/08/17 01:11:44;;;;;;;20.42;6.25;;;10.60;99.90;;;;;;5127851;27;19919;-62
2021/08/17 01:14:11;;;;;;;21.30;5.85;;;10.60;99.90;;;;;;5128975;27;20050;-61
2021/08/17 01:16:36;;;;;;;18.80;4.97;;;10.60;99.90;;;;;;5127032;27;20039;-61
2021/08/17 01:19:02;;;;;;;;;;;10.60;99.90;;;;;;5109634;27;20394;-61
2021/08/17 01:21:31;;;;;;;15.93;4.38;;;10.60;99.90;;;;;;5108246;28;19916;-61
2021/08/17 01:23:57;;;;;;;19.17;4.93;;;10.60;99.90;;;;;;5097531;28;20118;-61
2021/08/17 01:26:23;;;;;;;13.00;5.38;;;10.60;99.90;;;;;;5088212;28;20036;-61
2021/08/17 01:28:48;;;;;;;;;;;10.60;99.90;;;;;;5087980;28;20055;-61
2021/08/17 01:31:14;;;;;;;12.55;3.70;;;10.60;99.90;;;;;;5085389;28;20415;-62
2021/08/17 01:33:39;;;;;;;;;;;10.50;99.90;;;;;;5088484;28;20113;-62
2021/08/17 01:36:05;;;;;;;14.52;4.43;;;10.50;99.90;;;;;;5087928;28;19912;-61
2021/08/17 01:38:31;;;;;;;;;;;10.50;99.90;;;;;;5107405;27;20458;-62
2021/08/17 01:40:56;;;;;;;12.65;4.18;;;10.50;99.90;;;;;;5112629;27;19919;-62
2021/08/17 01:43:22;;;;;;;;;;;10.40;99.90;;;;;;5108351;28;20103;-62
2021/08/17 01:45:58;;;;;;;18.20;4.97;;;10.40;99.90;;;;;;5106887;28;19924;-60
2021/08/17 01:48:26;;;;;;;16.80;3.88;;;10.40;99.90;;;;;;5108239;28;20047;-61
2021/08/17 01:50:52;;;;;;;14.63;3.88;;;10.40;99.90;;;;;;5107912;28;20054;-62
2021/08/17 01:53:17;;;;;;;;;;;10.40;99.90;;;;;;5108328;28;20031;-62
2021/08/17 01:55:43;;;;;;;14.02;4.70;;;10.40;99.90;;;;;;5107540;28;20401;-61
2021/08/17 01:58:08;;;;;;;;;;;10.40;99.90;;;;;;5097286;28;20085;-60
2021/08/17 02:00:34;;;;;;;12.00;3.95;;;10.50;99.90;;;;;;5085136;28;19916;-61
2021/08/17 02:02:59;;;;;;;;;;;10.50;99.90;;;;;;5087111;28;20476;-61
2021/08/17 02:05:25;;;;;;;11.88;4.25;;;10.40;99.90;;;;;;5099738;28;19922;-62
2021/08/17 02:07:53;;;;;;;;;;;10.40;99.90;;;;;;5107305;28;20039;-60
2021/08/17 02:10:19;;;;;;;11.18;3.78;;;10.40;99.90;;;;;;5106812;28;19964;-61
2021/08/17 02:12:45;;;;;;;;;;;10.40;99.90;;;;;;5107655;28;20040;-61
2021/08/17 02:15:11;;;;;;;14.55;3.55;;;10.50;99.90;;;;;;5106429;28;19922;-61
2021/08/17 02:17:36;;;;;;;;;;;10.50;99.90;;;;;;5107501;28;20118;-62
2021/08/17 02:20:03;;;;;;;9.15;4.05;;;10.50;99.90;;;;;;5107112;28;20359;-62
2021/08/17 02:22:28;;;;;;;19.20;4.95;;;10.50;99.90;;;;;;5107596;28;20036;-62
2021/08/17 02:24:54;;;;;;;;;;;10.50;99.90;;;;;;5107725;28;20571;-63
2021/08/17 02:27:19;;;;;;;16.35;4.50;;;10.50;99.90;;;;;;5107314;28;19923;-60
2021/08/17 02:29:45;;;;;;;;;;;10.40;99.90;;;;;;5108998;28;20039;-61
2021/08/17 02:32:10;;;;;;;15.40;5.05;;;10.40;99.90;;;;;;5106497;27;19938;-62
2021/08/17 02:34:36;;;;;;;;;;;10.40;99.90;;;;;;5107760;28;20126;-62
2021/08/17 02:37:02;;;;;;;14.65;4.47;;;10.40;99.90;;;;;;5107487;28;19911;-62
2021/08/17 02:39:27;;;;;;;;;;;10.40;99.90;;;;;;5106863;28;20118;-61
2021/08/17 02:41:53;;;;;;;21.52;5.30;;;10.40;99.90;;;;;;5104931;28;19919;-61
2021/08/17 02:44:18;;;;;;;;;;;10.40;99.90;;;;;;5107252;28;20543;-62
2021/08/17 02:46:44;;;;;;;16.13;5.30;;;10.50;99.90;;;;;;5106094;28;19928;-62
2021/08/17 02:49:09;;;;;;;;;;;10.50;99.90;;;;;;5106979;28;20403;-60
2021/08/17 02:51:35;;;;;;;19.20;5.20;;;10.50;99.90;;;;;;5106300;28;19922;-62
2021/08/17 02:54:01;;;;;;;;;;;10.50;99.90;;;;;;5106160;28;20609;-61
2021/08/17 02:56:26;;;;;;;12.93;4.45;;;10.50;99.90;;;;;;5105509;28;20363;-61
2021/08/17 02:58:52;;;;;;;;;;;10.50;99.90;;;;;;5106734;28;20149;-62
2021/08/17 03:01:17;;;;;;;16.58;4.60;;;10.50;99.90;;;;;;5094654;28;19916;-62
2021/08/17 03:03:43;;;;;;;;;;;10.50;99.90;;;;;;5086824;28;20504;-61
2021/08/17 03:06:09;;;;;;;26.33;5.35;;;10.50;99.90;;;;;;5085184;28;20539;-62
2021/08/17 03:08:34;;;;;;;;;;;10.60;99.90;;;;;;5094667;28;20063;-62
2021/08/17 03:11:01;;;;;;;13.18;4.55;;;10.60;99.90;;;;;;5098758;28;19915;-62
2021/08/17 03:13:26;;;;;;;15.60;4.07;;;10.60;99.90;;;;;;5085648;28;20533;-62
2021/08/17 03:15:52;;;;;;;;;;;10.60;99.90;;;;;;5091849;27;20060;-61
2021/08/17 03:18:17;;;;;;;19.23;4.80;;;10.60;99.90;;;;;;5106055;28;19920;-62
2021/08/17 03:20:43;;;;;;;;;;;10.50;99.90;;;;;;5106548;28;20043;-61
2021/08/17 03:23:11;;;;;;;15.00;4.95;;;10.50;99.90;;;;;;5105752;28;19946;-62
2021/08/17 03:25:37;;;;;;;18.88;4.70;;;10.50;99.90;;;;;;5105507;28;20055;-62
2021/08/17 03:28:02;;;;;;;;;;;10.50;99.90;;;;;;5106622;28;20039;-61
2021/08/17 03:30:28;;;;;;;18.00;4.70;;;10.50;99.90;;;;;;5104651;28;19962;-62
2021/08/17 03:32:54;;;;;;;;;;;10.50;99.90;;;;;;5106807;28;20407;-62
2021/08/17 03:35:21;;;;;;;23.42;6.40;;;10.50;99.90;;;;;;5106428;28;20403;-61
2021/08/17 03:37:46;;;;;;;15.20;4.57;;;10.50;99.90;;;;;;5106356;28;20039;-61
2021/08/17 03:40:14;;;;;;;;;;;10.50;99.90;;;;;;5106310;28;20689;-61
2021/08/17 03:42:39;;;;;;;25.58;7.95;;;10.50;99.90;;;;;;5106950;28;19953;-63
2021/08/17 03:45:07;;;;;;;;;;;10.50;99.90;;;;;;5106881;28;20468;-62
2021/08/17 03:47:32;;;;;;;18.20;5.13;;;10.60;99.90;;;;;;5103479;28;20023;-65
2021/08/17 03:49:58;;;;;;;;;;;10.50;99.90;;;;;;5106930;28;20126;-60
2021/08/17 03:52:23;;;;;;;17.15;4.88;;;10.60;99.90;;;;;;5106275;28;19969;-61
2021/08/17 03:54:49;;;;;;;;;;;10.60;99.90;;;;;;5109369;28;20031;-61
2021/08/17 03:57:14;;;;;;;16.52;5.70;;;10.50;99.90;;;;;;5109539;28;19916;-60
2021/08/17 03:59:40;;;;;;;;;;;10.50;99.90;;;;;;5110388;28;20036;-62
2021/08/17 04:02:06;;;;;;;17.73;5.28;;;10.60;99.90;;;;;;5108847;27;19947;-62
2021/08/17 04:04:31;;;;;;;;;;;10.60;99.90;;;;;;5110040;28;20051;-62
2021/08/17 04:06:57;;;;;;;17.35;5.10;;;10.60;99.90;;;;;;5108807;28;19971;-62
2021/08/17 04:09:22;;;;;;;;;;;10.60;99.90;;;;;;5110000;28;21112;-62
2021/08/17 04:11:48;;;;;;;15.43;4.43;;;10.60;99.90;;;;;;5108962;28;20022;-62
2021/08/17 04:14:13;;;;;;;;;;;10.50;99.90;;;;;;5104398;28;20044;-62
2021/08/17 04:16:40;;;;;;;11.80;4.03;;;10.50;99.90;;;;;;5101477;28;19915;-64
2021/08/17 04:19:06;;;;;;;17.00;4.00;;;10.50;99.90;;;;;;5101295;28;20057;-64
2021/08/17 04:21:32;;;;;;;;;;;10.50;99.90;;;;;;5106968;28;20044;-64
2021/08/17 04:23:59;;;;;;;14.35;4.20;;;10.50;99.90;;;;;;5098409;28;20002;-64
2021/08/17 04:26:25;;;;;;;23.35;4.18;;;10.60;99.90;;;;;;5089212;28;20089;-64
2021/08/17 04:28:50;;;;;;;;;;;10.60;99.90;;;;;;5089550;28;20044;-64
2021/08/17 04:31:16;;;;;;;12.52;3.67;;;10.60;99.90;;;;;;5088663;28;19916;-64
2021/08/17 04:33:42;;;;;;;;;;;10.60;99.90;;;;;;5088570;28;20549;-64
2021/08/17 04:36:08;;;;;;;24.05;4.82;;;10.60;99.90;;;;;;5087558;28;20103;-63
2021/08/17 04:38:33;;;;;;;;;;;10.60;99.90;;;;;;5105903;28;20127;-63
2021/08/17 04:40:59;;;;;;;25.30;4.78;;;10.60;99.90;;;;;;5109526;28;19959;-63
2021/08/17 04:43:25;;;;;;;;;;;10.50;99.90;;;;;;5108303;28;20040;-63
2021/08/17 04:45:52;;;;;;;18.63;4.43;;;10.60;99.90;;;;;;5108822;27;19927;-69
2021/08/17 04:48:18;;;;;;;22.10;5.78;;;10.60;99.90;;;;;;5109300;28;20067;-65
2021/08/17 04:50:44;;;;;;;23.52;7.10;;;10.50;99.90;;;;;;5109103;28;20040;-65
2021/08/17 04:53:10;;;;;;;;;;;10.60;99.90;;;;;;5106597;28;20505;-66
2021/08/17 04:55:36;;;;;;;17.40;4.25;;;10.60;99.90;;;;;;5108163;28;19930;-66
2021/08/17 04:58:01;;;;;;;18.25;4.43;;;10.60;99.90;;;;;;5106300;28;20043;-66
2021/08/17 05:00:28;;;;;;;;;;;10.60;99.90;;;;;;5108353;27;20039;-65
2021/08/17 05:02:54;;;;;;;14.35;4.22;;;10.60;99.90;;;;;;5108267;28;20284;-67
2021/08/17 05:05:20;;;;;;;22.38;7.63;;;10.60;99.90;;;;;;5107592;28;20035;-64
2021/08/17 05:07:46;;;;;;;22.15;5.68;;;10.60;99.90;;;;;;5104567;28;20066;-62
2021/08/17 05:10:16;;;;;;;;;;;10.60;99.90;;;;;;5101838;27;20039;-63
2021/08/17 05:12:43;;;;;;;20.45;6.43;;;10.70;99.90;;;;;;5106741;28;19922;-63
2021/08/17 05:15:10;;;;;;;22.83;7.40;;;10.60;99.90;;;;;;5108306;27;20051;-63
2021/08/17 05:17:36;;;;;;;15.80;5.93;;;10.70;99.90;;;;;;5108562;28;20040;-63
2021/08/17 05:20:05;;;;;;;;;;;10.70;99.90;;;;;;5108904;28;20639;-63
2021/08/17 05:22:30;;;;;;;20.20;6.28;;;10.70;99.90;;;;;;5108019;28;19916;-63
2021/08/17 05:24:56;;;;;;;;;;;10.70;99.90;;;;;;5089781;28;20047;-63
2021/08/17 05:27:22;;;;;;;25.67;5.32;;;10.70;99.90;;;;;;5103012;28;19919;-63
2021/08/17 05:29:50;;;;;;;;;;;10.70;99.90;;;;;;5104345;28;20104;-63
2021/08/17 05:32:16;;;;;;;24.60;8.85;;;10.80;99.90;;;;;;5108180;28;19915;-65
2021/08/17 05:34:42;;;;;;;18.13;6.10;;;10.80;99.90;;;;;;5109299;28;20468;-63
2021/08/17 05:37:08;;;;;;;;;;;10.80;99.90;;;;;;5106519;28;20716;-62
2021/08/17 05:39:34;;;;;;;18.58;5.75;;;10.80;99.90;;;;;;5109500;28;19959;-63
2021/08/17 05:41:59;;;;;;;;;;;10.80;99.90;;;;;;5107119;28;20031;-63
2021/08/17 05:44:25;;;;;;;13.05;4.35;;;10.80;99.90;;;;;;5102131;28;20022;-62
2021/08/17 05:46:51;;;;;;;;;;;10.80;99.90;;;;;;5114920;27;20436;-65
2021/08/17 05:49:16;;;;;;;20.60;5.40;;;10.80;99.90;;;;;;5107808;28;19916;-63
2021/08/17 05:51:42;;;;;;;;;;;10.80;99.90;;;;;;5107508;28;20039;-63
2021/08/17 05:54:07;;;;;;;15.18;5.13;;;10.80;99.90;;;;;;5107581;28;20423;-63
2021/08/17 05:56:33;;;;;;;;;;;10.90;99.90;;;;;;5108621;28;20526;-63
2021/08/17 05:58:59;;;;;;;14.85;5.40;;;10.90;99.90;;;;;;5088923;28;19958;-63
2021/08/17 06:01:25;;;;;;;;;;;11.00;99.90;;;;;;5086785;28;20507;-62
2021/08/17 06:03:50;;;;;;;16.65;5.20;;;11.00;99.90;;;;;;5088544;28;19922;-63
2021/08/17 06:06:16;;;;;;;;;;;11.00;99.90;;;;;;5100989;28;20044;-63
2021/08/17 06:08:42;;;;;;;19.27;5.60;;;11.00;99.90;;;;;;5106826;28;19962;-63
2021/08/17 06:11:07;;;;;;;;;;;11.00;99.90;;;;;;5099370;27;20089;-63
2021/08/17 06:13:33;;;;;;;19.70;5.47;;;10.90;99.90;;;;;;5107014;28;20036;-63
2021/08/17 06:15:59;;;;;;;;;;;11.00;99.90;;;;;;5105583;28;20042;-64
2021/08/17 06:18:25;;;;;;;21.05;7.43;;;11.10;99.90;;;;;;5106390;28;19942;-62
2021/08/17 06:20:50;;;;;;;;;;;11.10;99.90;;;;;;5107751;28;20044;-63
2021/08/17 06:23:16;;;;;;;16.27;5.30;;;11.10;99.90;;;;;;5101722;28;19916;-63
2021/08/17 06:25:42;;;;;;;;;;;11.20;99.90;;;;;;5086496;28;20562;-63
2021/08/17 06:28:08;;;;;;;12.13;4.72;;;11.20;99.90;;;;;;5086068;28;20597;-62
2021/08/17 06:30:34;;;;;;;18.48;5.32;;;11.20;99.90;;;;;;5082596;28;20473;-62
2021/08/17 06:33:00;;;;;;;;;;;11.30;99.90;;;;;;5065570;28;20063;-63
2021/08/17 06:35:26;;;;;;;13.30;4.65;;;11.30;99.90;;;;;;5066114;28;20369;-63
2021/08/17 06:37:51;;;;;;;;;;;11.30;99.90;;;;;;5084023;28;20484;-63
2021/08/17 06:40:18;;;;;;;19.40;4.90;;;11.30;99.90;;;;;;5097941;28;19915;-64
2021/08/17 06:42:43;;;;;;;17.48;5.28;;;11.40;99.90;;;;;;5096917;28;20701;-63
2021/08/17 06:45:09;;;;;;;;;;;11.50;99.90;;;;;;5085897;28;20088;-63
2021/08/17 06:47:42;;;;;;;21.17;5.72;;;11.70;99.90;;;;;;5085173;28;19924;-63
2021/08/17 06:50:08;;;;;;;17.13;5.10;;;11.90;99.90;;;;;;5085215;28;20047;-63
2021/08/17 06:52:34;;;;;;;;;;;11.80;99.90;;;;;;5086771;28;20040;-63
2021/08/17 06:55:00;;;;;;;22.10;6.93;;;11.70;99.90;;;;;;5085657;28;19927;-63
2021/08/17 06:57:26;;;;;;;;;;;11.80;99.90;;;;;;5086621;28;20174;-63
2021/08/17 06:59:52;;;;;;;37.08;16.25;;;11.70;99.90;;;;;;5086855;28;20333;-64
2021/08/17 07:02:17;;;;;;;;;;;11.80;99.90;;;;;;5085349;28;20061;-63
2021/08/17 07:04:43;;;;;;;14.10;5.68;;;11.80;99.90;;;;;;5087642;28;20545;-64
2021/08/17 07:07:09;;;;;;;;;;;11.80;99.90;;;;;;5088737;28;20447;-64
2021/08/17 07:09:34;;;;;;;18.42;6.80;;;11.90;99.90;;;;;;5099809;28;20410;-64
2021/08/17 07:12:00;;;;;;;;;;;12.00;99.90;;;;;;5107335;28;20415;-64
2021/08/17 07:14:26;;;;;;;15.27;5.10;;;12.00;99.90;;;;;;5107772;28;19926;-64
2021/08/17 07:16:51;;;;;;;;;;;12.00;99.90;;;;;;5105678;28;20078;-64
2021/08/17 07:19:17;;;;;;;19.45;5.53;;;12.10;99.90;;;;;;5088871;28;20007;-64
2021/08/17 07:21:42;;;;;;;;;;;12.20;99.90;;;;;;5089282;28;20067;-63
2021/08/17 07:24:08;;;;;;;12.90;4.72;;;12.40;99.90;;;;;;5092792;28;19920;-64
2021/08/17 07:26:34;;;;;;;;;;;12.50;99.90;;;;;;5090631;28;20492;-64
2021/08/17 07:28:59;;;;;;;14.82;4.93;;;12.50;99.90;;;;;;5092843;28;20352;-64
2021/08/17 07:31:25;;;;;;;;;;;12.50;99.90;;;;;;5103325;28;20403;-64
2021/08/17 07:33:50;;;;;;;10.43;4.35;;;12.60;99.90;;;;;;5112475;28;20340;-64
2021/08/17 07:36:16;;;;;;;;;;;12.70;99.90;;;;;;5112859;28;20082;-64
2021/08/17 07:38:42;;;;;;;12.60;4.50;;;12.80;99.90;;;;;;5119177;27;19922;-64
2021/08/17 07:41:07;;;;;;;;;;;12.90;99.90;;;;;;5128912;27;20039;-64
2021/08/17 07:43:33;;;;;;;13.68;5.05;;;12.90;99.90;;;;;;5131173;27;19939;-64
2021/08/17 07:45:59;;;;;;;;;;;13.10;99.90;;;;;;5129979;27;20074;-66
2021/08/17 07:48:25;;;;;;;15.05;4.90;;;13.10;99.90;;;;;;5131508;27;19926;-64
2021/08/17 07:50:50;;;;;;;;;;;13.20;99.90;;;;;;5131807;27;20509;-64
2021/08/17 07:53:16;;;;;;;14.60;5.18;;;13.20;99.90;;;;;;5131574;27;20378;-65
2021/08/17 07:55:41;;;;;;;;;;;13.10;99.90;;;;;;5130808;27;20818;-68
2021/08/17 07:58:07;;;;;;;11.52;5.07;;;13.30;99.90;;;;;;5120785;27;19919;-66
2021/08/17 08:00:33;;;;;;;;;;;13.50;99.90;;;;;;5110096;28;20035;-66
2021/08/17 08:02:59;;;;;;;10.52;4.78;;;13.90;99.90;;;;;;5109689;28;20485;-67
2021/08/17 08:05:24;;;;;;;;;;;13.90;99.90;;;;;;5109470;28;20110;-67
2021/08/17 08:07:50;;;;;;;15.20;5.80;;;13.70;99.90;;;;;;5104687;27;19916;-67
2021/08/17 08:10:16;;;;;;;;;;;13.50;99.90;;;;;;5118756;27;20035;-68
2021/08/17 08:12:41;;;;;;;12.60;5.03;;;13.40;99.90;;;;;;5110608;28;19920;-68
2021/08/17 08:15:07;;;;;;;;;;;13.30;99.90;;;;;;5109478;28;20380;-64
2021/08/17 08:17:33;;;;;;;11.40;5.25;;;13.80;99.90;;;;;;5108718;27;19946;-68
2021/08/17 08:19:58;;;;;;;;;;;13.90;99.90;;;;;;5110088;28;20044;-67
2021/08/17 08:22:24;;;;;;;14.48;6.30;;;13.80;99.90;;;;;;5110169;28;19920;-67
2021/08/17 08:24:49;;;;;;;;;;;13.60;99.90;;;;;;5112406;27;20043;-68
2021/08/17 08:27:15;;;;;;;18.10;7.28;;;13.80;99.90;;;;;;5110504;28;19930;-64
2021/08/17 08:29:41;;;;;;;;;;;13.80;99.90;;;;;;5110740;28;20039;-66
2021/08/17 08:32:08;;;;;;;14.85;6.88;;;13.70;99.90;;;;;;5109131;28;19950;-66
2021/08/17 08:34:34;;;;;;;14.70;7.43;;;13.60;99.90;;;;;;5109154;28;20118;-68
2021/08/17 08:36:59;;;;;;;;;;;13.60;99.90;;;;;;5109118;28;20070;-68
2021/08/17 08:39:25;;;;;;;16.67;6.47;;;13.50;99.90;;;;;;5120310;27;19976;-68
2021/08/17 08:41:50;;;;;;;;;;;13.50;99.90;;;;;;5131123;27;20544;-69
2021/08/17 08:44:17;;;;;;;15.50;7.00;;;13.50;99.90;;;;;;5129909;27;19919;-69
2021/08/17 08:46:43;;;;;;;13.93;6.82;;;13.70;99.90;;;;;;5114549;27;20393;-68
2021/08/17 08:49:09;;;;;;;;;;;13.80;99.90;;;;;;5110211;28;20479;-69
2021/08/17 08:51:36;;;;;;;18.92;7.47;;;13.70;99.90;;;;;;5109140;28;19965;-66
2021/08/17 08:54:02;;;;;;;15.65;8.10;;;13.70;99.90;;;;;;5109271;28;20043;-67
2021/08/17 08:56:29;;;;;;;17.52;8.45;;;13.70;99.90;;;;;;5108797;28;20115;-67
2021/08/17 08:58:55;;;;;;;21.63;9.25;;;13.70;99.90;;;;;;5107850;28;20051;-67
2021/08/17 09:01:21;;;;;;;;;;;13.60;99.90;;;;;;5108049;28;20411;-67
2021/08/17 09:03:49;;;;;;;27.05;9.23;;;13.70;99.90;;;;;;5109820;28;19922;-67
2021/08/17 09:06:16;;;;;;;18.08;9.88;;;13.70;99.90;;;;;;5109811;28;20048;-66
2021/08/17 09:08:42;;;;;;;20.50;9.40;;;13.80;99.90;;;;;;5115824;27;20049;-67
2021/08/17 09:11:15;;;;;;;;;;;13.90;99.90;;;;;;5127835;27;20061;-67
2021/08/17 09:13:42;;;;;;;25.27;11.13;;;13.90;99.90;;;;;;5129334;27;19926;-67
2021/08/17 09:16:22;;;;;;;20.73;9.85;;;14.00;99.90;;;;;;5128943;27;20039;-68
2021/08/17 09:18:49;;;;;;;22.10;9.60;;;14.30;99.90;;;;;;5111925;27;20515;-67
2021/08/17 09:21:15;;;;;;;21.92;10.20;;;14.30;99.90;;;;;;5108917;28;20130;-67
2021/08/17 09:23:41;;;;;;;;;;;14.20;99.90;;;;;;5113124;27;20118;-67
2021/08/17 09:26:30;;;;;;;18.58;9.10;;;14.10;99.90;;;;;;5108415;28;20326;-66
2021/08/17 09:29:01;;;;;;;20.38;10.00;;;14.20;99.90;;;;;;5108062;28;20085;-68
2021/08/17 09:31:38;;;;;;;18.83;9.30;;;14.30;99.90;;;;;;5108177;28;20040;-67
2021/08/17 09:34:04;;;;;;;20.48;9.23;;;14.30;99.90;;;;;;5107961;28;20082;-66
2021/08/17 09:36:37;;;;;;;16.42;9.63;;;14.30;99.90;;;;;;5108875;28;20544;-66
2021/08/17 09:39:03;;;;;;;18.63;9.32;;;14.30;99.90;;;;;;5113038;27;20085;-68
2021/08/17 09:41:29;;;;;;;20.77;10.00;;;14.30;99.90;;;;;;5087880;28;20040;-67
2021/08/17 09:43:58;;;;;;;;;;;14.30;99.90;;;;;;5088825;28;20042;-68
2021/08/17 09:46:29;;;;;;;19.50;9.30;;;14.40;99.90;;;;;;5086958;28;19923;-66
2021/08/17 09:48:56;;;;;;;25.80;11.50;;;14.30;99.90;;;;;;5088131;28;20136;-67
2021/08/17 09:51:34;;;;;;;19.27;10.40;;;14.30;99.90;;;;;;5087298;28;20047;-67
2021/08/17 09:54:21;;;;;;;25.60;10.98;;;14.30;99.90;;;;;;5087178;28;20051;-66
2021/08/17 09:57:01;;;;;;;22.00;11.88;;;14.20;99.90;;;;;;5087510;28;20059;-67
2021/08/17 09:59:29;;;;;;;22.80;11.23;;;14.20;99.90;;;;;;5087036;28;20040;-66
2021/08/17 10:01:57;;;;;;;22.15;11.38;;;14.10;99.90;;;;;;5086710;28;20044;-66
2021/08/17 10:04:24;;;;;;;24.08;11.18;;;14.20;99.90;;;;;;5099763;28;20036;-67
2021/08/17 10:06:51;;;;;;;22.50;10.70;;;14.20;99.90;;;;;;5105371;28;20039;-67
2021/08/17 10:09:17;;;;;;;20.60;10.45;;;14.40;99.90;;;;;;5107578;28;20122;-67
2021/08/17 10:11:43;;;;;;;;;;;14.50;99.90;;;;;;5107715;28;20176;-66
2021/08/17 10:14:13;;;;;;;22.60;11.20;;;14.50;99.90;;;;;;5107395;28;19919;-68
2021/08/17 10:16:41;;;;;;;29.05;12.07;;;14.60;99.90;;;;;;5106669;28;20461;-65
2021/08/17 10:19:08;;;;;;;22.48;11.40;;;14.60;99.90;;;;;;5106976;28;20043;-66
2021/08/17 10:21:37;;;;;;;34.90;19.23;;;14.60;99.90;;;;;;5106770;28;20036;-66
2021/08/17 10:24:40;;;;;;;27.70;12.40;;;14.50;99.90;;;;;;5097702;28;20115;-66
2021/08/17 10:27:27;;;;;;;23.88;11.48;;;14.40;99.90;;;;;;5099298;28;20051;-66
2021/08/17 10:30:04;;;;;;;;;;;14.30;99.90;;;;;;5106802;28;20031;-67
2021/08/17 10:32:44;;;;;;;25.85;10.85;;;14.30;99.90;;;;;;5085503;27;20342;-66
2021/08/17 10:38:15;;;;;;;22.67;11.38;;;14.20;99.90;;;;;;5081367;28;20155;-66
2021/08/17 10:40:50;;;;;;;23.25;11.38;;;14.20;99.90;;;;;;5086095;28;20064;-65
2021/08/17 10:43:35;;;;;;;24.65;12.30;;;14.20;99.90;;;;;;5086885;28;20056;-66
2021/08/17 10:46:04;;;;;;;23.17;11.02;;;14.00;99.90;;;;;;5081720;28;20126;-66
2021/08/17 10:48:48;;;;;;;23.33;13.30;;;14.10;99.90;;;;;;5086361;28;20063;-66
2021/08/17 10:51:23;;;;;;;23.48;11.85;;;14.10;99.90;;;;;;5087153;28;20068;-66
2021/08/17 10:54:14;;;;;;;26.98;13.80;;;14.10;99.90;;;;;;5084863;28;20097;-66
2021/08/17 10:56:40;;;;;;;25.15;13.25;;;14.20;99.90;;;;;;5085921;28;20043;-67
2021/08/17 10:59:06;;;;;;;25.45;12.32;;;14.20;99.90;;;;;;5086493;28;20078;-68
2021/08/17 11:01:32;;;;;;;26.88;12.60;;;14.20;99.90;;;;;;5085179;27;20151;-67
2021/08/17 11:03:59;;;;;;;;;;;14.20;99.90;;;;;;5084877;28;20115;-67
2021/08/17 11:06:34;;;;;;;25.80;12.98;;;14.20;99.90;;;;;;5085710;28;19924;-66
2021/08/17 11:09:00;;;;;;;31.50;13.30;;;14.10;99.90;;;;;;5092916;28;20044;-67
2021/08/17 11:11:25;;;;;;;;;;;14.00;99.90;;;;;;5106520;28;20399;-67
2021/08/17 11:14:09;;;;;;;26.90;12.63;;;14.00;99.90;;;;;;5105919;28;19916;-67
2021/08/17 11:16:41;;;;;;;29.58;13.82;;;14.00;99.90;;;;;;5102430;27;20096;-65
2021/08/17 11:19:07;;;;;;;27.67;12.43;;;14.00;99.90;;;;;;5080253;28;20622;-66
2021/08/17 11:21:33;;;;;;;;;;;14.10;99.90;;;;;;5085821;28;20040;-66
2021/08/17 11:24:14;;;;;;;29.85;13.48;;;14.20;99.90;;;;;;5085708;28;19927;-66
2021/08/17 11:26:46;;;;;;;28.65;13.52;;;14.20;99.90;;;;;;5084717;28;20040;-67
2021/08/17 11:29:16;;;;;;;23.10;12.25;;;14.30;99.90;;;;;;5085688;28;20059;-68
2021/08/17 11:31:46;;;;;;;28.95;14.60;;;14.30;99.90;;;;;;5085506;27;20173;-69
2021/08/17 11:34:20;;;;;;;29.42;13.35;;;14.30;99.90;;;;;;5085469;28;20048;-67
2021/08/17 11:36:50;;;;;;;37.90;13.98;;;14.30;99.90;;;;;;5085570;28;20104;-68
2021/08/17 11:39:46;;;;;;;28.33;13.63;;;14.30;99.90;;;;;;5095001;28;20400;-66
2021/08/17 11:42:18;;;;;;;34.75;15.05;;;14.30;99.90;;;;;;5104955;28;20126;-64
2021/08/17 11:44:45;;;;;;;25.10;12.80;;;14.20;99.90;;;;;;5105790;28;20036;-66
2021/08/17 11:47:13;;;;;;;25.60;12.50;;;14.20;99.90;;;;;;5105371;27;20062;-67
2021/08/17 11:49:42;;;;;;;31.92;13.93;;;14.20;99.90;;;;;;5105517;28;20122;-67
2021/08/17 11:52:18;;;;;;;31.05;12.65;;;14.20;99.90;;;;;;5106369;28;20154;-67
2021/08/17 11:54:54;;;;;;;27.13;13.25;;;14.20;99.90;;;;;;5105875;28;20073;-67
2021/08/17 11:57:41;;;;;;;32.90;13.57;;;14.30;99.90;;;;;;5102158;28;20044;-67
2021/08/17 12:00:17;;;;;;;28.08;12.40;;;14.30;99.90;;;;;;5085375;28;20048;-67
2021/08/17 12:02:46;;;;;;;23.00;11.75;;;14.30;99.90;;;;;;5083497;28;20056;-67
2021/08/17 12:05:17;;;;;;;24.05;12.65;;;14.40;99.90;;;;;;5085694;28;20044;-67
2021/08/17 12:07:45;;;;;;;27.40;12.27;;;14.40;99.90;;;;;;5094037;28;20046;-66
2021/08/17 12:10:15;;;;;;;29.92;13.18;;;14.50;99.90;;;;;;5103452;28;20044;-66
2021/08/17 12:12:59;;;;;;;26.13;13.02;;;14.40;99.90;;;;;;5105706;28;20035;-66
2021/08/17 12:15:31;;;;;;;28.90;13.40;;;14.30;99.90;;;;;;5109705;27;20039;-66
2021/08/17 12:18:00;;;;;;;26.50;13.13;;;14.20;99.90;;;;;;5110382;28;20043;-66
2021/08/17 12:20:26;;;;;;;27.13;13.15;;;14.20;99.90;;;;;;5111024;28;20101;-66
2021/08/17 12:22:52;;;;;;;;;;;14.10;99.90;;;;;;5109798;28;20039;-68
2021/08/17 12:25:22;;;;;;;26.52;13.55;;;14.00;99.90;;;;;;5092655;28;19916;-68
2021/08/17 12:27:59;;;;;;;26.48;12.95;;;14.00;99.90;;;;;;5106003;28;20042;-66
2021/08/17 12:30:31;;;;;;;29.90;12.68;;;14.00;99.90;;;;;;5110914;28;20042;-66
2021/08/17 12:32:58;;;;;;;28.27;13.10;;;14.00;99.90;;;;;;5110620;28;20061;-66
2021/08/17 12:35:36;;;;;;;28.42;13.55;;;14.10;99.90;;;;;;5103413;28;20042;-66
2021/08/17 12:38:16;;;;;;;33.85;14.30;;;14.10;99.90;;;;;;5110381;28;20051;-66
2021/08/17 12:40:50;;;;;;;27.20;12.43;;;14.20;99.90;;;;;;5103282;28;20090;-67
2021/08/17 12:43:21;;;;;;;30.30;12.57;;;14.30;99.90;;;;;;5110020;28;20035;-67
2021/08/17 12:45:47;;;;;;;25.48;12.30;;;14.20;99.90;;;;;;5109159;28;20038;-67
2021/08/17 12:48:15;;;;;;;;;;;14.30;99.90;;;;;;5109442;28;20039;-67
2021/08/17 12:50:41;;;;;;;28.85;13.27;;;14.30;99.90;;;;;;5110028;28;20403;-67
2021/08/17 12:53:36;;;;;;;25.90;11.68;;;14.30;99.90;;;;;;5109260;28;20603;-67
2021/08/17 12:56:02;;;;;;;34.72;12.85;;;14.40;99.90;;;;;;5099767;28;20060;-65
2021/08/17 12:58:27;;;;;;;;;;;14.30;99.90;;;;;;5108681;28;20040;-65
2021/08/17 13:00:53;;;;;;;23.20;11.40;;;14.30;99.90;;;;;;5108623;27;19979;-65
2021/08/17 13:03:19;;;;;;;;;;;14.30;99.90;;;;;;5108334;28;20035;-65
2021/08/17 13:05:44;;;;;;;22.67;11.15;;;14.30;99.90;;;;;;5108628;28;20363;-65
2021/08/17 13:08:10;;;;;;;;;;;14.30;99.90;;;;;;5108923;28;20038;-65
2021/08/17 13:10:37;;;;;;;21.83;11.15;;;14.30;99.90;;;;;;5109613;28;19923;-64